sensor_id;sensor_type;location;lat;lon;timestamp;P1;durP1;ratioP1;P2;durP2;ratioP2
53285;SDS011;39171;45.550;12.074;2022-11-09T00:03:21;19.52;;;16.50;;
53285;SDS011;39171;45.550;12.074;2022-11-09T00:09:23;18.40;;;16.38;;
53285;SDS011;39171;45.550;12.074;2022-11-09T00:15:24;18.95;;;16.50;;
53285;SDS011;39171;45.550;12.074;2022-11-09T00:21:25;17.95;;;14.98;;
53285;SDS011;39171;45.550;12.074;2022-11-09T00:27:27;17.42;;;15.52;;
53285;SDS011;39171;45.550;12.074;2022-11-09T00:33:30;18.75;;;15.75;;
53285;SDS011;39171;45.550;12.074;2022-11-09T00:39:32;18.98;;;15.20;;
53285;SDS011;39171;45.550;12.074;2022-11-09T00:45:33;19.40;;;15.60;;
53285;SDS011;39171;45.550;12.074;2022-11-09T00:51:35;17.33;;;14.27;;
53285;SDS011;39171;45.550;12.074;2022-11-09T00:57:37;18.30;;;14.55;;
53285;SDS011;39171;45.550;12.074;2022-11-09T01:03:39;17.30;;;14.85;;
53285;SDS011;39171;45.550;12.074;2022-11-09T01:09:41;15.27;;;12.82;;
53285;SDS011;39171;45.550;12.074;2022-11-09T01:15:48;14.15;;;12.45;;
53285;SDS011;39171;45.550;12.074;2022-11-09T01:21:51;15.18;;;13.20;;
53285;SDS011;39171;45.550;12.074;2022-11-09T01:27:55;16.08;;;13.27;;
53285;SDS011;39171;45.550;12.074;2022-11-09T01:33:59;14.82;;;12.80;;
53285;SDS011;39171;45.550;12.074;2022-11-09T01:40:00;16.95;;;12.70;;
53285;SDS011;39171;45.550;12.074;2022-11-09T01:46:11;15.85;;;13.05;;
53285;SDS011;39171;45.550;12.074;2022-11-09T01:52:15;16.40;;;12.93;;
53285;SDS011;39171;45.550;12.074;2022-11-09T01:58:22;15.88;;;12.23;;
53285;SDS011;39171;45.550;12.074;2022-11-09T02:04:35;13.77;;;11.70;;
53285;SDS011;39171;45.550;12.074;2022-11-09T02:10:54;14.38;;;11.35;;
53285;SDS011;39171;45.550;12.074;2022-11-09T02:16:58;13.07;;;10.60;;
53285;SDS011;39171;45.550;12.074;2022-11-09T02:23:00;12.70;;;11.07;;
53285;SDS011;39171;45.550;12.074;2022-11-09T02:29:02;12.20;;;9.85;;
53285;SDS011;39171;45.550;12.074;2022-11-09T02:35:08;14.38;;;11.02;;
53285;SDS011;39171;45.550;12.074;2022-11-09T02:41:10;13.57;;;10.88;;
53285;SDS011;39171;45.550;12.074;2022-11-09T02:47:13;14.25;;;11.38;;
53285;SDS011;39171;45.550;12.074;2022-11-09T02:53:16;12.18;;;10.13;;
53285;SDS011;39171;45.550;12.074;2022-11-09T02:59:19;13.38;;;10.25;;
53285;SDS011;39171;45.550;12.074;2022-11-09T03:05:21;12.52;;;9.73;;
53285;SDS011;39171;45.550;12.074;2022-11-09T03:11:23;10.77;;;9.00;;
53285;SDS011;39171;45.550;12.074;2022-11-09T03:17:25;9.98;;;8.60;;
53285;SDS011;39171;45.550;12.074;2022-11-09T03:23:27;11.13;;;9.10;;
53285;SDS011;39171;45.550;12.074;2022-11-09T03:29:29;10.07;;;8.95;;
53285;SDS011;39171;45.550;12.074;2022-11-09T03:35:30;10.93;;;8.82;;
53285;SDS011;39171;45.550;12.074;2022-11-09T03:41:32;9.85;;;8.43;;
53285;SDS011;39171;45.550;12.074;2022-11-09T03:47:38;9.15;;;8.02;;
53285;SDS011;39171;45.550;12.074;2022-11-09T03:53:43;9.55;;;7.93;;
53285;SDS011;39171;45.550;12.074;2022-11-09T03:59:44;9.95;;;8.30;;
53285;SDS011;39171;45.550;12.074;2022-11-09T04:05:46;9.68;;;8.35;;
53285;SDS011;39171;45.550;12.074;2022-11-09T04:11:47;10.48;;;8.88;;
53285;SDS011;39171;45.550;12.074;2022-11-09T04:17:55;8.50;;;7.57;;
53285;SDS011;39171;45.550;12.074;2022-11-09T04:24:00;10.85;;;8.40;;
53285;SDS011;39171;45.550;12.074;2022-11-09T04:30:02;9.85;;;7.95;;
53285;SDS011;39171;45.550;12.074;2022-11-09T04:36:04;9.10;;;7.90;;
53285;SDS011;39171;45.550;12.074;2022-11-09T04:42:06;9.15;;;7.55;;
53285;SDS011;39171;45.550;12.074;2022-11-09T04:48:08;9.65;;;7.95;;
53285;SDS011;39171;45.550;12.074;2022-11-09T04:54:11;9.40;;;7.63;;
53285;SDS011;39171;45.550;12.074;2022-11-09T05:00:13;9.48;;;7.53;;
53285;SDS011;39171;45.550;12.074;2022-11-09T05:06:14;9.48;;;7.20;;
53285;SDS011;39171;45.550;12.074;2022-11-09T05:12:34;8.80;;;7.60;;
53285;SDS011;39171;45.550;12.074;2022-11-09T05:18:35;7.43;;;6.30;;
53285;SDS011;39171;45.550;12.074;2022-11-09T05:24:37;7.53;;;6.68;;
53285;SDS011;39171;45.550;12.074;2022-11-09T05:30:38;8.13;;;7.03;;
53285;SDS011;39171;45.550;12.074;2022-11-09T05:36:40;7.35;;;6.03;;
53285;SDS011;39171;45.550;12.074;2022-11-09T05:42:41;7.88;;;6.30;;
53285;SDS011;39171;45.550;12.074;2022-11-09T05:48:43;7.22;;;5.70;;
53285;SDS011;39171;45.550;12.074;2022-11-09T05:54:45;6.82;;;5.97;;
53285;SDS011;39171;45.550;12.074;2022-11-09T06:00:47;7.45;;;5.93;;
53285;SDS011;39171;45.550;12.074;2022-11-09T06:06:48;7.45;;;5.85;;
53285;SDS011;39171;45.550;12.074;2022-11-09T06:12:50;6.68;;;5.38;;
53285;SDS011;39171;45.550;12.074;2022-11-09T06:18:51;7.63;;;5.72;;
53285;SDS011;39171;45.550;12.074;2022-11-09T06:24:53;7.50;;;5.93;;
53285;SDS011;39171;45.550;12.074;2022-11-09T06:30:58;7.40;;;5.72;;
53285;SDS011;39171;45.550;12.074;2022-11-09T06:37:00;5.72;;;5.13;;
53285;SDS011;39171;45.550;12.074;2022-11-09T06:43:02;5.72;;;4.97;;
53285;SDS011;39171;45.550;12.074;2022-11-09T06:49:04;5.57;;;4.90;;
53285;SDS011;39171;45.550;12.074;2022-11-09T06:55:06;5.50;;;4.40;;
53285;SDS011;39171;45.550;12.074;2022-11-09T07:01:12;5.68;;;4.65;;
53285;SDS011;39171;45.550;12.074;2022-11-09T07:07:19;7.22;;;5.40;;
53285;SDS011;39171;45.550;12.074;2022-11-09T07:13:21;9.50;;;6.35;;
53285;SDS011;39171;45.550;12.074;2022-11-09T07:19:22;8.25;;;5.80;;
53285;SDS011;39171;45.550;12.074;2022-11-09T07:25:23;6.28;;;5.28;;
53285;SDS011;39171;45.550;12.074;2022-11-09T07:31:27;6.57;;;5.15;;
53285;SDS011;39171;45.550;12.074;2022-11-09T07:37:29;9.02;;;6.28;;
53285;SDS011;39171;45.550;12.074;2022-11-09T07:43:31;9.38;;;6.15;;
53285;SDS011;39171;45.550;12.074;2022-11-09T07:49:36;7.32;;;5.50;;
53285;SDS011;39171;45.550;12.074;2022-11-09T07:55:38;8.43;;;6.05;;
53285;SDS011;39171;45.550;12.074;2022-11-09T08:01:41;8.55;;;5.60;;
53285;SDS011;39171;45.550;12.074;2022-11-09T08:07:42;8.00;;;6.07;;
53285;SDS011;39171;45.550;12.074;2022-11-09T08:13:43;6.93;;;4.70;;
53285;SDS011;39171;45.550;12.074;2022-11-09T08:19:45;6.72;;;4.97;;
53285;SDS011;39171;45.550;12.074;2022-11-09T08:25:48;6.38;;;5.07;;
53285;SDS011;39171;45.550;12.074;2022-11-09T08:31:50;6.80;;;4.55;;
53285;SDS011;39171;45.550;12.074;2022-11-09T08:37:52;5.65;;;4.60;;
53285;SDS011;39171;45.550;12.074;2022-11-09T08:43:56;6.28;;;4.85;;
53285;SDS011;39171;45.550;12.074;2022-11-09T08:50:00;7.63;;;4.72;;
53285;SDS011;39171;45.550;12.074;2022-11-09T08:56:05;7.03;;;5.55;;
53285;SDS011;39171;45.550;12.074;2022-11-09T09:02:08;6.75;;;4.95;;
53285;SDS011;39171;45.550;12.074;2022-11-09T09:08:09;7.15;;;5.03;;
53285;SDS011;39171;45.550;12.074;2022-11-09T09:14:13;5.68;;;4.32;;
53285;SDS011;39171;45.550;12.074;2022-11-09T09:20:15;6.18;;;4.40;;
53285;SDS011;39171;45.550;12.074;2022-11-09T09:26:19;5.85;;;4.40;;
53285;SDS011;39171;45.550;12.074;2022-11-09T09:32:23;4.72;;;3.65;;
53285;SDS011;39171;45.550;12.074;2022-11-09T09:38:25;5.90;;;4.43;;
53285;SDS011;39171;45.550;12.074;2022-11-09T09:44:33;5.38;;;3.97;;
53285;SDS011;39171;45.550;12.074;2022-11-09T09:50:49;5.63;;;4.18;;
53285;SDS011;39171;45.550;12.074;2022-11-09T09:56:54;6.18;;;4.30;;
53285;SDS011;39171;45.550;12.074;2022-11-09T10:02:59;5.50;;;3.97;;
53285;SDS011;39171;45.550;12.074;2022-11-09T10:09:20;6.00;;;4.30;;
53285;SDS011;39171;45.550;12.074;2022-11-09T10:28:01;4.97;;;3.60;;
53285;SDS011;39171;45.550;12.074;2022-11-09T10:34:14;4.70;;;3.78;;
53285;SDS011;39171;45.550;12.074;2022-11-09T10:47:01;4.15;;;3.53;;
53285;SDS011;39171;45.550;12.074;2022-11-09T10:53:22;4.28;;;3.38;;
53285;SDS011;39171;45.550;12.074;2022-11-09T10:59:46;4.82;;;3.83;;
53285;SDS011;39171;45.550;12.074;2022-11-09T11:12:35;4.70;;;3.85;;
53285;SDS011;39171;45.550;12.074;2022-11-09T11:18:55;4.70;;;3.20;;
53285;SDS011;39171;45.550;12.074;2022-11-09T11:25:17;5.30;;;3.40;;
53285;SDS011;39171;45.550;12.074;2022-11-09T11:31:43;4.03;;;2.90;;
53285;SDS011;39171;45.550;12.074;2022-11-09T11:45:10;5.38;;;3.30;;
53285;SDS011;39171;45.550;12.074;2022-11-09T11:51:55;4.90;;;3.45;;
53285;SDS011;39171;45.550;12.074;2022-11-09T12:12:52;4.75;;;3.20;;
53285;SDS011;39171;45.550;12.074;2022-11-09T12:32:41;6.07;;;4.15;;
53285;SDS011;39171;45.550;12.074;2022-11-09T12:39:36;4.90;;;3.38;;
53285;SDS011;39171;45.550;12.074;2022-11-09T12:46:08;4.72;;;3.28;;
53285;SDS011;39171;45.550;12.074;2022-11-09T12:52:30;4.85;;;3.47;;
53285;SDS011;39171;45.550;12.074;2022-11-09T12:58:51;4.60;;;3.25;;
53285;SDS011;39171;45.550;12.074;2022-11-09T13:11:52;4.70;;;3.22;;
53285;SDS011;39171;45.550;12.074;2022-11-09T13:18:23;4.15;;;3.20;;
53285;SDS011;39171;45.550;12.074;2022-11-09T13:24:51;4.13;;;2.97;;
53285;SDS011;39171;45.550;12.074;2022-11-09T13:32:02;3.97;;;3.20;;
53285;SDS011;39171;45.550;12.074;2022-11-09T13:38:23;3.95;;;2.67;;
53285;SDS011;39171;45.550;12.074;2022-11-09T13:44:48;3.20;;;2.40;;
53285;SDS011;39171;45.550;12.074;2022-11-09T13:51:09;3.10;;;2.25;;
53285;SDS011;39171;45.550;12.074;2022-11-09T13:57:32;2.78;;;1.88;;
53285;SDS011;39171;45.550;12.074;2022-11-09T14:03:52;3.37;;;2.17;;
53285;SDS011;39171;45.550;12.074;2022-11-09T14:23:16;4.28;;;3.03;;
53285;SDS011;39171;45.550;12.074;2022-11-09T14:29:48;2.80;;;2.13;;
53285;SDS011;39171;45.550;12.074;2022-11-09T14:36:22;2.87;;;1.93;;
53285;SDS011;39171;45.550;12.074;2022-11-09T14:42:45;2.53;;;1.98;;
53285;SDS011;39171;45.550;12.074;2022-11-09T14:49:07;3.20;;;1.77;;
53285;SDS011;39171;45.550;12.074;2022-11-09T14:55:28;4.00;;;2.65;;
53285;SDS011;39171;45.550;12.074;2022-11-09T15:02:01;4.03;;;2.80;;
53285;SDS011;39171;45.550;12.074;2022-11-09T15:08:24;3.55;;;2.83;;
53285;SDS011;39171;45.550;12.074;2022-11-09T15:14:48;3.92;;;2.85;;
53285;SDS011;39171;45.550;12.074;2022-11-09T15:27:53;4.88;;;3.80;;
53285;SDS011;39171;45.550;12.074;2022-11-09T15:34:20;5.32;;;3.95;;
53285;SDS011;39171;45.550;12.074;2022-11-09T15:40:43;5.80;;;4.25;;
53285;SDS011;39171;45.550;12.074;2022-11-09T15:47:03;6.93;;;4.67;;
53285;SDS011;39171;45.550;12.074;2022-11-09T15:59:53;6.35;;;4.53;;
53285;SDS011;39171;45.550;12.074;2022-11-09T16:06:37;6.60;;;4.60;;
53285;SDS011;39171;45.550;12.074;2022-11-09T16:12:58;7.05;;;4.80;;
53285;SDS011;39171;45.550;12.074;2022-11-09T16:19:17;6.03;;;4.68;;
53285;SDS011;39171;45.550;12.074;2022-11-09T16:25:37;6.43;;;4.60;;
53285;SDS011;39171;45.550;12.074;2022-11-09T16:31:58;7.10;;;5.07;;
53285;SDS011;39171;45.550;12.074;2022-11-09T16:38:19;6.47;;;4.50;;
53285;SDS011;39171;45.550;12.074;2022-11-09T16:44:39;6.03;;;4.63;;
53285;SDS011;39171;45.550;12.074;2022-11-09T16:51:01;8.07;;;5.50;;
53285;SDS011;39171;45.550;12.074;2022-11-09T16:57:21;6.95;;;5.03;;
53285;SDS011;39171;45.550;12.074;2022-11-09T17:03:41;8.03;;;5.30;;
53285;SDS011;39171;45.550;12.074;2022-11-09T17:16:22;9.43;;;6.55;;
53285;SDS011;39171;45.550;12.074;2022-11-09T17:29:09;10.15;;;7.38;;
53285;SDS011;39171;45.550;12.074;2022-11-09T17:35:30;10.15;;;7.80;;
53285;SDS011;39171;45.550;12.074;2022-11-09T17:41:54;11.23;;;8.13;;
53285;SDS011;39171;45.550;12.074;2022-11-09T17:48:14;10.27;;;8.03;;
53285;SDS011;39171;45.550;12.074;2022-11-09T17:54:35;10.03;;;8.13;;
53285;SDS011;39171;45.550;12.074;2022-11-09T18:00:54;9.98;;;8.25;;
53285;SDS011;39171;45.550;12.074;2022-11-09T18:07:14;11.40;;;9.40;;
53285;SDS011;39171;45.550;12.074;2022-11-09T18:13:35;10.45;;;8.15;;
53285;SDS011;39171;45.550;12.074;2022-11-09T18:19:56;11.57;;;9.40;;
53285;SDS011;39171;45.550;12.074;2022-11-09T18:26:15;10.95;;;8.80;;
53285;SDS011;39171;45.550;12.074;2022-11-09T18:32:35;11.33;;;9.30;;
53285;SDS011;39171;45.550;12.074;2022-11-09T18:38:55;12.05;;;9.00;;
53285;SDS011;39171;45.550;12.074;2022-11-09T18:45:15;11.50;;;9.52;;
53285;SDS011;39171;45.550;12.074;2022-11-09T18:51:35;11.73;;;9.63;;
53285;SDS011;39171;45.550;12.074;2022-11-09T18:57:55;12.43;;;10.35;;
53285;SDS011;39171;45.550;12.074;2022-11-09T19:04:15;12.05;;;10.07;;
53285;SDS011;39171;45.550;12.074;2022-11-09T19:27:39;14.70;;;12.27;;
53285;SDS011;39171;45.550;12.074;2022-11-09T19:33:59;15.13;;;12.30;;
53285;SDS011;39171;45.550;12.074;2022-11-09T19:40:20;14.45;;;12.38;;
53285;SDS011;39171;45.550;12.074;2022-11-09T19:46:40;15.00;;;12.02;;
53285;SDS011;39171;45.550;12.074;2022-11-09T19:53:00;15.00;;;11.97;;
53285;SDS011;39171;45.550;12.074;2022-11-09T19:59:20;14.33;;;11.90;;
53285;SDS011;39171;45.550;12.074;2022-11-09T20:05:41;16.05;;;12.75;;
53285;SDS011;39171;45.550;12.074;2022-11-09T20:12:01;14.75;;;12.77;;
53285;SDS011;39171;45.550;12.074;2022-11-09T20:18:46;15.52;;;12.38;;
53285;SDS011;39171;45.550;12.074;2022-11-09T20:25:07;15.32;;;12.38;;
53285;SDS011;39171;45.550;12.074;2022-11-09T20:31:28;15.38;;;12.77;;
53285;SDS011;39171;45.550;12.074;2022-11-09T20:37:48;12.07;;;10.48;;
53285;SDS011;39171;45.550;12.074;2022-11-09T20:44:08;14.27;;;11.55;;
53285;SDS011;39171;45.550;12.074;2022-11-09T20:50:28;13.07;;;11.07;;
53285;SDS011;39171;45.550;12.074;2022-11-09T20:56:48;13.52;;;10.98;;
53285;SDS011;39171;45.550;12.074;2022-11-09T21:03:08;13.37;;;10.83;;
53285;SDS011;39171;45.550;12.074;2022-11-09T21:09:28;12.73;;;10.45;;
53285;SDS011;39171;45.550;12.074;2022-11-09T21:15:48;15.45;;;12.02;;
53285;SDS011;39171;45.550;12.074;2022-11-09T21:22:08;12.70;;;10.53;;
53285;SDS011;39171;45.550;12.074;2022-11-09T21:28:28;13.17;;;11.20;;
53285;SDS011;39171;45.550;12.074;2022-11-09T21:35:06;14.20;;;11.32;;
53285;SDS011;39171;45.550;12.074;2022-11-09T21:41:27;13.57;;;10.82;;
53285;SDS011;39171;45.550;12.074;2022-11-09T21:47:56;12.68;;;10.73;;
53285;SDS011;39171;45.550;12.074;2022-11-09T21:54:16;13.20;;;11.17;;
53285;SDS011;39171;45.550;12.074;2022-11-09T22:00:36;13.25;;;10.20;;
53285;SDS011;39171;45.550;12.074;2022-11-09T22:06:56;11.27;;;10.07;;
53285;SDS011;39171;45.550;12.074;2022-11-09T22:13:16;11.63;;;9.35;;
53285;SDS011;39171;45.550;12.074;2022-11-09T22:19:55;10.20;;;9.10;;
53285;SDS011;39171;45.550;12.074;2022-11-09T22:26:33;11.25;;;9.25;;
53285;SDS011;39171;45.550;12.074;2022-11-09T22:32:53;13.83;;;10.30;;
53285;SDS011;39171;45.550;12.074;2022-11-09T22:39:16;10.88;;;9.52;;
53285;SDS011;39171;45.550;12.074;2022-11-09T22:45:36;12.80;;;10.33;;
53285;SDS011;39171;45.550;12.074;2022-11-09T22:51:56;9.80;;;8.40;;
53285;SDS011;39171;45.550;12.074;2022-11-09T22:58:15;11.73;;;9.27;;
53285;SDS011;39171;45.550;12.074;2022-11-09T23:04:35;10.88;;;9.27;;
53285;SDS011;39171;45.550;12.074;2022-11-09T23:10:56;12.17;;;9.97;;
53285;SDS011;39171;45.550;12.074;2022-11-09T23:24:04;10.95;;;9.38;;
53285;SDS011;39171;45.550;12.074;2022-11-09T23:30:45;11.73;;;9.30;;
53285;SDS011;39171;45.550;12.074;2022-11-09T23:37:05;10.20;;;8.70;;
53285;SDS011;39171;45.550;12.074;2022-11-09T23:43:24;10.43;;;8.80;;
53285;SDS011;39171;45.550;12.074;2022-11-09T23:49:44;11.10;;;9.57;;
53285;SDS011;39171;45.550;12.074;2022-11-09T23:56:05;11.55;;;9.40;;
